sensor_id;sensor_type;location;lat;lon;timestamp;P1;durP1;ratioP1;P2;durP2;ratioP2
18512;SDS011;9385;48.380;9.744;2022-12-24T00:02:21;6.18;;;1.33;;
18512;SDS011;9385;48.380;9.744;2022-12-24T00:04:48;5.32;;;1.42;;
18512;SDS011;9385;48.380;9.744;2022-12-24T00:07:15;6.10;;;1.20;;
18512;SDS011;9385;48.380;9.744;2022-12-24T00:09:42;3.83;;;1.23;;
18512;SDS011;9385;48.380;9.744;2022-12-24T00:12:08;4.40;;;1.10;;
18512;SDS011;9385;48.380;9.744;2022-12-24T00:14:35;4.93;;;1.00;;
18512;SDS011;9385;48.380;9.744;2022-12-24T00:17:03;5.10;;;0.80;;
18512;SDS011;9385;48.380;9.744;2022-12-24T00:19:30;6.65;;;1.00;;
18512;SDS011;9385;48.380;9.744;2022-12-24T00:21:57;4.03;;;0.95;;
18512;SDS011;9385;48.380;9.744;2022-12-24T00:24:23;4.03;;;1.00;;
18512;SDS011;9385;48.380;9.744;2022-12-24T00:26:50;3.90;;;0.80;;
18512;SDS011;9385;48.380;9.744;2022-12-24T00:29:17;3.17;;;0.70;;
18512;SDS011;9385;48.380;9.744;2022-12-24T00:31:45;2.40;;;0.70;;
18512;SDS011;9385;48.380;9.744;2022-12-24T00:34:13;5.22;;;0.75;;
18512;SDS011;9385;48.380;9.744;2022-12-24T00:36:39;4.43;;;1.00;;
18512;SDS011;9385;48.380;9.744;2022-12-24T00:39:07;7.28;;;1.10;;
18512;SDS011;9385;48.380;9.744;2022-12-24T00:41:33;5.25;;;1.30;;
18512;SDS011;9385;48.380;9.744;2022-12-24T00:44:00;5.05;;;0.88;;
18512;SDS011;9385;48.380;9.744;2022-12-24T00:46:30;5.50;;;0.90;;
18512;SDS011;9385;48.380;9.744;2022-12-24T00:48:57;2.10;;;0.65;;
18512;SDS011;9385;48.380;9.744;2022-12-24T00:51:26;3.00;;;0.80;;
18512;SDS011;9385;48.380;9.744;2022-12-24T00:53:53;3.83;;;0.70;;
18512;SDS011;9385;48.380;9.744;2022-12-24T00:56:20;2.10;;;0.70;;
18512;SDS011;9385;48.380;9.744;2022-12-24T00:58:47;2.97;;;0.77;;
18512;SDS011;9385;48.380;9.744;2022-12-24T01:01:14;3.95;;;0.80;;
18512;SDS011;9385;48.380;9.744;2022-12-24T01:03:41;4.68;;;1.27;;
18512;SDS011;9385;48.380;9.744;2022-12-24T01:06:09;5.05;;;1.10;;
18512;SDS011;9385;48.380;9.744;2022-12-24T01:08:37;3.92;;;1.27;;
18512;SDS011;9385;48.380;9.744;2022-12-24T01:11:05;4.00;;;1.40;;
18512;SDS011;9385;48.380;9.744;2022-12-24T01:13:33;3.55;;;1.13;;
18512;SDS011;9385;48.380;9.744;2022-12-24T01:16:00;3.22;;;1.00;;
18512;SDS011;9385;48.380;9.744;2022-12-24T01:18:28;2.60;;;1.00;;
18512;SDS011;9385;48.380;9.744;2022-12-24T01:20:55;5.72;;;1.10;;
18512;SDS011;9385;48.380;9.744;2022-12-24T01:23:22;2.25;;;0.90;;
18512;SDS011;9385;48.380;9.744;2022-12-24T01:25:50;5.72;;;1.25;;
18512;SDS011;9385;48.380;9.744;2022-12-24T01:28:17;3.28;;;0.70;;
18512;SDS011;9385;48.380;9.744;2022-12-24T01:30:44;6.72;;;1.15;;
18512;SDS011;9385;48.380;9.744;2022-12-24T01:33:11;5.57;;;0.95;;
18512;SDS011;9385;48.380;9.744;2022-12-24T01:35:38;5.27;;;1.00;;
18512;SDS011;9385;48.380;9.744;2022-12-24T01:38:05;4.25;;;1.10;;
18512;SDS011;9385;48.380;9.744;2022-12-24T01:40:32;4.10;;;0.80;;
18512;SDS011;9385;48.380;9.744;2022-12-24T01:43:18;5.20;;;1.10;;
18512;SDS011;9385;48.380;9.744;2022-12-24T01:45:50;3.90;;;1.20;;
18512;SDS011;9385;48.380;9.744;2022-12-24T01:48:20;3.25;;;1.00;;
18512;SDS011;9385;48.380;9.744;2022-12-24T01:50:56;3.17;;;1.13;;
18512;SDS011;9385;48.380;9.744;2022-12-24T01:53:26;5.60;;;1.20;;
18512;SDS011;9385;48.380;9.744;2022-12-24T01:55:54;5.18;;;1.10;;
18512;SDS011;9385;48.380;9.744;2022-12-24T01:58:22;4.30;;;1.10;;
18512;SDS011;9385;48.380;9.744;2022-12-24T02:00:51;4.60;;;1.00;;
18512;SDS011;9385;48.380;9.744;2022-12-24T02:03:18;2.28;;;0.70;;
18512;SDS011;9385;48.380;9.744;2022-12-24T02:05:46;5.00;;;0.95;;
18512;SDS011;9385;48.380;9.744;2022-12-24T02:08:15;6.10;;;0.95;;
18512;SDS011;9385;48.380;9.744;2022-12-24T02:10:42;6.60;;;1.10;;
18512;SDS011;9385;48.380;9.744;2022-12-24T02:13:09;3.50;;;0.95;;
18512;SDS011;9385;48.380;9.744;2022-12-24T02:15:41;5.47;;;1.10;;
18512;SDS011;9385;48.380;9.744;2022-12-24T02:18:19;3.17;;;0.93;;
18512;SDS011;9385;48.380;9.744;2022-12-24T02:20:58;4.22;;;1.10;;
18512;SDS011;9385;48.380;9.744;2022-12-24T02:23:56;4.55;;;0.90;;
18512;SDS011;9385;48.380;9.744;2022-12-24T02:26:43;4.43;;;0.88;;
18512;SDS011;9385;48.380;9.744;2022-12-24T02:35:28;5.60;;;1.00;;
18512;SDS011;9385;48.380;9.744;2022-12-24T02:38:02;3.85;;;0.90;;
18512;SDS011;9385;48.380;9.744;2022-12-24T02:40:35;5.13;;;1.02;;
18512;SDS011;9385;48.380;9.744;2022-12-24T02:43:07;4.40;;;0.90;;
18512;SDS011;9385;48.380;9.744;2022-12-24T02:45:39;5.10;;;1.40;;
18512;SDS011;9385;48.380;9.744;2022-12-24T02:48:09;6.37;;;1.20;;
18512;SDS011;9385;48.380;9.744;2022-12-24T02:50:38;4.85;;;0.80;;
18512;SDS011;9385;48.380;9.744;2022-12-24T02:53:07;4.20;;;0.80;;
18512;SDS011;9385;48.380;9.744;2022-12-24T02:55:36;5.22;;;1.10;;
18512;SDS011;9385;48.380;9.744;2022-12-24T02:58:15;6.40;;;1.08;;
18512;SDS011;9385;48.380;9.744;2022-12-24T03:00:57;6.50;;;1.02;;
18512;SDS011;9385;48.380;9.744;2022-12-24T03:03:44;4.37;;;0.93;;
18512;SDS011;9385;48.380;9.744;2022-12-24T03:06:22;2.70;;;0.70;;
18512;SDS011;9385;48.380;9.744;2022-12-24T03:08:57;3.65;;;1.00;;
18512;SDS011;9385;48.380;9.744;2022-12-24T03:11:31;5.05;;;1.00;;
18512;SDS011;9385;48.380;9.744;2022-12-24T03:14:00;3.80;;;0.80;;
18512;SDS011;9385;48.380;9.744;2022-12-24T03:16:29;5.95;;;1.00;;
18512;SDS011;9385;48.380;9.744;2022-12-24T03:18:56;3.03;;;0.90;;
18512;SDS011;9385;48.380;9.744;2022-12-24T03:21:24;4.80;;;1.05;;
18512;SDS011;9385;48.380;9.744;2022-12-24T03:23:54;5.88;;;1.42;;
18512;SDS011;9385;48.380;9.744;2022-12-24T03:26:21;7.45;;;1.20;;
18512;SDS011;9385;48.380;9.744;2022-12-24T03:28:51;4.55;;;0.90;;
18512;SDS011;9385;48.380;9.744;2022-12-24T03:31:18;4.10;;;0.82;;
18512;SDS011;9385;48.380;9.744;2022-12-24T03:33:47;6.43;;;1.23;;
18512;SDS011;9385;48.380;9.744;2022-12-24T03:36:15;5.88;;;0.90;;
18512;SDS011;9385;48.380;9.744;2022-12-24T03:38:42;7.53;;;1.00;;
18512;SDS011;9385;48.380;9.744;2022-12-24T03:41:09;5.95;;;1.00;;
18512;SDS011;9385;48.380;9.744;2022-12-24T03:43:36;3.67;;;1.00;;
18512;SDS011;9385;48.380;9.744;2022-12-24T03:46:04;5.88;;;1.00;;
18512;SDS011;9385;48.380;9.744;2022-12-24T03:48:32;6.32;;;1.20;;
18512;SDS011;9385;48.380;9.744;2022-12-24T03:51:01;2.97;;;0.90;;
18512;SDS011;9385;48.380;9.744;2022-12-24T03:53:29;3.40;;;1.10;;
18512;SDS011;9385;48.380;9.744;2022-12-24T03:55:55;3.70;;;1.05;;
18512;SDS011;9385;48.380;9.744;2022-12-24T03:58:22;5.90;;;1.02;;
18512;SDS011;9385;48.380;9.744;2022-12-24T04:00:49;4.65;;;1.25;;
18512;SDS011;9385;48.380;9.744;2022-12-24T04:03:17;5.70;;;0.90;;
18512;SDS011;9385;48.380;9.744;2022-12-24T04:05:44;3.93;;;1.00;;
18512;SDS011;9385;48.380;9.744;2022-12-24T04:08:13;5.82;;;0.98;;
18512;SDS011;9385;48.380;9.744;2022-12-24T04:10:39;3.97;;;1.00;;
18512;SDS011;9385;48.380;9.744;2022-12-24T04:13:06;5.07;;;1.10;;
18512;SDS011;9385;48.380;9.744;2022-12-24T04:15:33;6.70;;;0.90;;
18512;SDS011;9385;48.380;9.744;2022-12-24T04:18:00;3.97;;;1.00;;
18512;SDS011;9385;48.380;9.744;2022-12-24T04:20:29;3.83;;;1.00;;
18512;SDS011;9385;48.380;9.744;2022-12-24T04:22:57;7.05;;;1.10;;
18512;SDS011;9385;48.380;9.744;2022-12-24T04:25:25;5.00;;;1.10;;
18512;SDS011;9385;48.380;9.744;2022-12-24T04:27:52;3.93;;;1.30;;
18512;SDS011;9385;48.380;9.744;2022-12-24T04:30:19;3.40;;;0.93;;
18512;SDS011;9385;48.380;9.744;2022-12-24T04:32:46;4.95;;;1.08;;
18512;SDS011;9385;48.380;9.744;2022-12-24T04:35:13;3.80;;;1.02;;
18512;SDS011;9385;48.380;9.744;2022-12-24T04:37:39;6.50;;;1.20;;
18512;SDS011;9385;48.380;9.744;2022-12-24T04:40:07;5.32;;;1.10;;
18512;SDS011;9385;48.380;9.744;2022-12-24T04:42:35;7.53;;;1.15;;
18512;SDS011;9385;48.380;9.744;2022-12-24T04:45:02;5.18;;;1.15;;
18512;SDS011;9385;48.380;9.744;2022-12-24T04:47:30;4.95;;;1.10;;
18512;SDS011;9385;48.380;9.744;2022-12-24T04:49:56;3.47;;;1.00;;
18512;SDS011;9385;48.380;9.744;2022-12-24T04:52:25;4.78;;;1.30;;
18512;SDS011;9385;48.380;9.744;2022-12-24T04:54:52;3.30;;;1.10;;
18512;SDS011;9385;48.380;9.744;2022-12-24T04:57:19;4.15;;;1.05;;
18512;SDS011;9385;48.380;9.744;2022-12-24T04:59:47;7.32;;;1.02;;
18512;SDS011;9385;48.380;9.744;2022-12-24T05:02:14;6.97;;;1.27;;
18512;SDS011;9385;48.380;9.744;2022-12-24T05:04:41;5.95;;;1.00;;
18512;SDS011;9385;48.380;9.744;2022-12-24T05:07:08;4.55;;;1.20;;
18512;SDS011;9385;48.380;9.744;2022-12-24T05:09:34;3.42;;;0.90;;
18512;SDS011;9385;48.380;9.744;2022-12-24T05:12:01;5.13;;;1.20;;
18512;SDS011;9385;48.380;9.744;2022-12-24T05:14:28;6.83;;;1.20;;
18512;SDS011;9385;48.380;9.744;2022-12-24T05:16:56;7.28;;;1.20;;
18512;SDS011;9385;48.380;9.744;2022-12-24T05:19:23;3.13;;;1.02;;
18512;SDS011;9385;48.380;9.744;2022-12-24T05:21:49;9.43;;;1.50;;
18512;SDS011;9385;48.380;9.744;2022-12-24T05:24:30;4.57;;;1.05;;
18512;SDS011;9385;48.380;9.744;2022-12-24T05:27:14;3.45;;;0.90;;
18512;SDS011;9385;48.380;9.744;2022-12-24T05:29:41;8.27;;;0.85;;
18512;SDS011;9385;48.380;9.744;2022-12-24T05:32:09;5.90;;;1.30;;
18512;SDS011;9385;48.380;9.744;2022-12-24T05:34:36;4.53;;;1.00;;
18512;SDS011;9385;48.380;9.744;2022-12-24T05:37:02;6.90;;;1.40;;
18512;SDS011;9385;48.380;9.744;2022-12-24T05:39:29;7.30;;;1.20;;
18512;SDS011;9385;48.380;9.744;2022-12-24T05:41:56;5.97;;;1.50;;
18512;SDS011;9385;48.380;9.744;2022-12-24T05:44:23;6.05;;;1.15;;
18512;SDS011;9385;48.380;9.744;2022-12-24T05:46:50;4.95;;;1.50;;
18512;SDS011;9385;48.380;9.744;2022-12-24T05:49:18;5.28;;;1.17;;
18512;SDS011;9385;48.380;9.744;2022-12-24T05:51:45;5.90;;;1.00;;
18512;SDS011;9385;48.380;9.744;2022-12-24T05:54:11;3.67;;;0.90;;
18512;SDS011;9385;48.380;9.744;2022-12-24T05:56:38;3.95;;;0.80;;
18512;SDS011;9385;48.380;9.744;2022-12-24T05:59:05;4.75;;;1.10;;
18512;SDS011;9385;48.380;9.744;2022-12-24T06:01:32;5.27;;;1.20;;
18512;SDS011;9385;48.380;9.744;2022-12-24T06:03:58;5.57;;;1.02;;
18512;SDS011;9385;48.380;9.744;2022-12-24T06:06:27;7.30;;;1.20;;
18512;SDS011;9385;48.380;9.744;2022-12-24T06:08:54;5.30;;;1.25;;
18512;SDS011;9385;48.380;9.744;2022-12-24T06:11:22;5.35;;;1.30;;
18512;SDS011;9385;48.380;9.744;2022-12-24T06:13:50;7.78;;;1.15;;
18512;SDS011;9385;48.380;9.744;2022-12-24T06:16:18;4.43;;;1.23;;
18512;SDS011;9385;48.380;9.744;2022-12-24T06:18:46;4.25;;;1.25;;
18512;SDS011;9385;48.380;9.744;2022-12-24T06:21:13;4.78;;;1.15;;
18512;SDS011;9385;48.380;9.744;2022-12-24T06:23:42;4.33;;;1.20;;
18512;SDS011;9385;48.380;9.744;2022-12-24T06:26:10;6.03;;;1.40;;
18512;SDS011;9385;48.380;9.744;2022-12-24T06:28:38;8.80;;;1.20;;
18512;SDS011;9385;48.380;9.744;2022-12-24T06:31:06;8.90;;;1.50;;
18512;SDS011;9385;48.380;9.744;2022-12-24T06:33:36;7.53;;;1.45;;
18512;SDS011;9385;48.380;9.744;2022-12-24T06:36:05;7.70;;;1.17;;
18512;SDS011;9385;48.380;9.744;2022-12-24T06:38:32;6.35;;;1.50;;
18512;SDS011;9385;48.380;9.744;2022-12-24T06:41:03;6.07;;;1.23;;
18512;SDS011;9385;48.380;9.744;2022-12-24T06:43:30;8.82;;;1.50;;
18512;SDS011;9385;48.380;9.744;2022-12-24T06:45:58;6.10;;;1.45;;
18512;SDS011;9385;48.380;9.744;2022-12-24T06:48:25;5.60;;;1.50;;
18512;SDS011;9385;48.380;9.744;2022-12-24T06:50:52;4.63;;;1.42;;
18512;SDS011;9385;48.380;9.744;2022-12-24T06:53:19;4.88;;;1.27;;
18512;SDS011;9385;48.380;9.744;2022-12-24T06:55:47;5.60;;;1.60;;
18512;SDS011;9385;48.380;9.744;2022-12-24T06:58:15;6.07;;;1.50;;
18512;SDS011;9385;48.380;9.744;2022-12-24T07:00:42;6.88;;;1.42;;
18512;SDS011;9385;48.380;9.744;2022-12-24T07:03:09;8.02;;;1.67;;
18512;SDS011;9385;48.380;9.744;2022-12-24T07:05:36;4.30;;;1.40;;
18512;SDS011;9385;48.380;9.744;2022-12-24T07:08:03;4.22;;;1.33;;
18512;SDS011;9385;48.380;9.744;2022-12-24T07:10:30;8.85;;;1.40;;
18512;SDS011;9385;48.380;9.744;2022-12-24T07:12:57;7.43;;;1.48;;
18512;SDS011;9385;48.380;9.744;2022-12-24T07:15:25;4.45;;;1.58;;
18512;SDS011;9385;48.380;9.744;2022-12-24T07:17:51;6.03;;;1.50;;
18512;SDS011;9385;48.380;9.744;2022-12-24T07:20:18;4.78;;;1.45;;
18512;SDS011;9385;48.380;9.744;2022-12-24T07:22:45;7.72;;;1.30;;
18512;SDS011;9385;48.380;9.744;2022-12-24T07:25:12;6.53;;;1.40;;
18512;SDS011;9385;48.380;9.744;2022-12-24T07:27:39;4.28;;;1.35;;
18512;SDS011;9385;48.380;9.744;2022-12-24T07:30:07;7.45;;;1.55;;
18512;SDS011;9385;48.380;9.744;2022-12-24T07:32:36;5.15;;;1.45;;
18512;SDS011;9385;48.380;9.744;2022-12-24T07:35:03;7.10;;;1.38;;
18512;SDS011;9385;48.380;9.744;2022-12-24T07:37:31;3.70;;;1.77;;
18512;SDS011;9385;48.380;9.744;2022-12-24T07:39:58;5.65;;;1.75;;
18512;SDS011;9385;48.380;9.744;2022-12-24T07:42:24;7.20;;;1.50;;
18512;SDS011;9385;48.380;9.744;2022-12-24T07:44:51;6.43;;;1.40;;
18512;SDS011;9385;48.380;9.744;2022-12-24T07:47:18;8.23;;;1.70;;
18512;SDS011;9385;48.380;9.744;2022-12-24T07:49:46;6.40;;;1.70;;
18512;SDS011;9385;48.380;9.744;2022-12-24T07:52:13;4.78;;;1.50;;
18512;SDS011;9385;48.380;9.744;2022-12-24T07:54:40;6.15;;;1.48;;
18512;SDS011;9385;48.380;9.744;2022-12-24T07:57:06;5.57;;;1.45;;
18512;SDS011;9385;48.380;9.744;2022-12-24T07:59:33;4.20;;;1.40;;
18512;SDS011;9385;48.380;9.744;2022-12-24T08:02:00;5.55;;;1.33;;
18512;SDS011;9385;48.380;9.744;2022-12-24T08:04:29;3.25;;;1.17;;
18512;SDS011;9385;48.380;9.744;2022-12-24T08:06:57;7.50;;;1.50;;
18512;SDS011;9385;48.380;9.744;2022-12-24T08:09:25;5.72;;;1.30;;
18512;SDS011;9385;48.380;9.744;2022-12-24T08:11:51;6.03;;;1.20;;
18512;SDS011;9385;48.380;9.744;2022-12-24T08:14:18;5.20;;;1.40;;
18512;SDS011;9385;48.380;9.744;2022-12-24T08:16:45;6.97;;;1.35;;
18512;SDS011;9385;48.380;9.744;2022-12-24T08:19:12;5.87;;;1.20;;
18512;SDS011;9385;48.380;9.744;2022-12-24T08:21:39;4.03;;;1.00;;
18512;SDS011;9385;48.380;9.744;2022-12-24T08:24:07;5.75;;;1.40;;
18512;SDS011;9385;48.380;9.744;2022-12-24T08:26:34;3.83;;;1.08;;
18512;SDS011;9385;48.380;9.744;2022-12-24T08:29:01;6.10;;;1.15;;
18512;SDS011;9385;48.380;9.744;2022-12-24T08:31:31;5.70;;;1.30;;
18512;SDS011;9385;48.380;9.744;2022-12-24T08:34:01;8.93;;;3.07;;
18512;SDS011;9385;48.380;9.744;2022-12-24T08:36:27;15.10;;;7.30;;
18512;SDS011;9385;48.380;9.744;2022-12-24T08:38:54;45.55;;;16.95;;
18512;SDS011;9385;48.380;9.744;2022-12-24T08:41:23;46.10;;;18.60;;
18512;SDS011;9385;48.380;9.744;2022-12-24T08:43:50;33.97;;;15.57;;
18512;SDS011;9385;48.380;9.744;2022-12-24T08:46:19;21.08;;;10.93;;
18512;SDS011;9385;48.380;9.744;2022-12-24T08:48:46;24.40;;;12.20;;
18512;SDS011;9385;48.380;9.744;2022-12-24T08:51:13;23.10;;;11.82;;
18512;SDS011;9385;48.380;9.744;2022-12-24T08:53:40;18.85;;;10.27;;
18512;SDS011;9385;48.380;9.744;2022-12-24T08:56:08;19.77;;;10.38;;
18512;SDS011;9385;48.380;9.744;2022-12-24T08:58:36;19.90;;;8.97;;
18512;SDS011;9385;48.380;9.744;2022-12-24T09:01:08;19.92;;;9.02;;
18512;SDS011;9385;48.380;9.744;2022-12-24T09:03:36;16.10;;;6.53;;
18512;SDS011;9385;48.380;9.744;2022-12-24T09:06:03;13.00;;;6.30;;
18512;SDS011;9385;48.380;9.744;2022-12-24T09:08:31;11.60;;;4.10;;
18512;SDS011;9385;48.380;9.744;2022-12-24T09:11:01;9.10;;;4.40;;
18512;SDS011;9385;48.380;9.744;2022-12-24T09:13:29;11.85;;;3.90;;
18512;SDS011;9385;48.380;9.744;2022-12-24T09:15:58;8.68;;;3.75;;
18512;SDS011;9385;48.380;9.744;2022-12-24T09:18:25;9.50;;;3.80;;
18512;SDS011;9385;48.380;9.744;2022-12-24T09:20:57;8.60;;;3.40;;
18512;SDS011;9385;48.380;9.744;2022-12-24T09:23:24;10.45;;;5.22;;
18512;SDS011;9385;48.380;9.744;2022-12-24T09:25:51;16.45;;;8.00;;
18512;SDS011;9385;48.380;9.744;2022-12-24T09:28:17;11.50;;;5.90;;
18512;SDS011;9385;48.380;9.744;2022-12-24T09:30:44;15.63;;;6.65;;
18512;SDS011;9385;48.380;9.744;2022-12-24T09:33:22;15.93;;;6.40;;
18512;SDS011;9385;48.380;9.744;2022-12-24T09:35:49;15.77;;;5.50;;
18512;SDS011;9385;48.380;9.744;2022-12-24T09:38:16;16.40;;;8.73;;
18512;SDS011;9385;48.380;9.744;2022-12-24T09:40:43;13.30;;;5.82;;
18512;SDS011;9385;48.380;9.744;2022-12-24T09:43:10;9.82;;;4.43;;
18512;SDS011;9385;48.380;9.744;2022-12-24T09:45:43;12.52;;;3.47;;
18512;SDS011;9385;48.380;9.744;2022-12-24T09:48:15;8.70;;;3.20;;
18512;SDS011;9385;48.380;9.744;2022-12-24T09:50:48;9.82;;;2.83;;
18512;SDS011;9385;48.380;9.744;2022-12-24T09:53:19;10.40;;;2.58;;
18512;SDS011;9385;48.380;9.744;2022-12-24T09:55:51;8.73;;;2.53;;
18512;SDS011;9385;48.380;9.744;2022-12-24T09:58:23;13.55;;;3.10;;
18512;SDS011;9385;48.380;9.744;2022-12-24T10:00:53;8.68;;;2.65;;
18512;SDS011;9385;48.380;9.744;2022-12-24T10:03:21;10.23;;;3.17;;
18512;SDS011;9385;48.380;9.744;2022-12-24T10:05:53;10.30;;;2.00;;
18512;SDS011;9385;48.380;9.744;2022-12-24T10:08:30;9.30;;;2.47;;
18512;SDS011;9385;48.380;9.744;2022-12-24T10:11:06;10.00;;;2.35;;
18512;SDS011;9385;48.380;9.744;2022-12-24T10:13:43;12.80;;;2.78;;
18512;SDS011;9385;48.380;9.744;2022-12-24T10:16:27;10.35;;;2.58;;
18512;SDS011;9385;48.380;9.744;2022-12-24T10:19:04;10.38;;;2.33;;
18512;SDS011;9385;48.380;9.744;2022-12-24T10:21:43;11.38;;;2.40;;
18512;SDS011;9385;48.380;9.744;2022-12-24T10:24:18;9.57;;;2.10;;
18512;SDS011;9385;48.380;9.744;2022-12-24T10:26:49;11.57;;;2.33;;
18512;SDS011;9385;48.380;9.744;2022-12-24T10:29:22;14.50;;;2.30;;
18512;SDS011;9385;48.380;9.744;2022-12-24T10:31:53;12.02;;;2.50;;
18512;SDS011;9385;48.380;9.744;2022-12-24T10:34:24;11.02;;;2.38;;
18512;SDS011;9385;48.380;9.744;2022-12-24T10:36:56;12.55;;;2.20;;
18512;SDS011;9385;48.380;9.744;2022-12-24T10:39:24;14.80;;;5.30;;
18512;SDS011;9385;48.380;9.744;2022-12-24T10:41:53;16.25;;;3.70;;
18512;SDS011;9385;48.380;9.744;2022-12-24T10:44:23;10.40;;;2.53;;
18512;SDS011;9385;48.380;9.744;2022-12-24T10:46:53;10.00;;;2.30;;
18512;SDS011;9385;48.380;9.744;2022-12-24T10:49:23;10.23;;;2.30;;
18512;SDS011;9385;48.380;9.744;2022-12-24T10:52:01;13.93;;;4.07;;
18512;SDS011;9385;48.380;9.744;2022-12-24T10:54:30;11.30;;;2.50;;
18512;SDS011;9385;48.380;9.744;2022-12-24T10:57:03;9.93;;;2.50;;
18512;SDS011;9385;48.380;9.744;2022-12-24T10:59:33;11.38;;;2.45;;
18512;SDS011;9385;48.380;9.744;2022-12-24T11:02:26;12.83;;;2.70;;
18512;SDS011;9385;48.380;9.744;2022-12-24T11:04:54;10.00;;;2.43;;
18512;SDS011;9385;48.380;9.744;2022-12-24T11:07:24;12.43;;;2.90;;
18512;SDS011;9385;48.380;9.744;2022-12-24T11:09:53;8.63;;;2.70;;
18512;SDS011;9385;48.380;9.744;2022-12-24T11:12:21;9.02;;;2.65;;
18512;SDS011;9385;48.380;9.744;2022-12-24T11:14:57;11.00;;;2.70;;
18512;SDS011;9385;48.380;9.744;2022-12-24T11:17:26;11.20;;;2.57;;
18512;SDS011;9385;48.380;9.744;2022-12-24T11:19:53;9.93;;;2.65;;
18512;SDS011;9385;48.380;9.744;2022-12-24T11:22:21;14.77;;;2.93;;
18512;SDS011;9385;48.380;9.744;2022-12-24T11:24:56;10.07;;;3.13;;
18512;SDS011;9385;48.380;9.744;2022-12-24T11:27:29;12.88;;;2.85;;
18512;SDS011;9385;48.380;9.744;2022-12-24T11:30:12;15.07;;;3.50;;
18512;SDS011;9385;48.380;9.744;2022-12-24T11:33:14;12.55;;;2.95;;
18512;SDS011;9385;48.380;9.744;2022-12-24T11:35:46;10.20;;;2.47;;
18512;SDS011;9385;48.380;9.744;2022-12-24T11:38:19;12.05;;;2.60;;
18512;SDS011;9385;48.380;9.744;2022-12-24T11:40:49;11.23;;;2.55;;
18512;SDS011;9385;48.380;9.744;2022-12-24T11:43:24;12.27;;;2.92;;
18512;SDS011;9385;48.380;9.744;2022-12-24T11:46:10;12.38;;;2.80;;
18512;SDS011;9385;48.380;9.744;2022-12-24T11:48:39;12.30;;;3.00;;
18512;SDS011;9385;48.380;9.744;2022-12-24T11:51:06;12.32;;;3.30;;
18512;SDS011;9385;48.380;9.744;2022-12-24T11:53:47;14.00;;;2.80;;
18512;SDS011;9385;48.380;9.744;2022-12-24T11:56:23;12.77;;;3.22;;
18512;SDS011;9385;48.380;9.744;2022-12-24T11:58:57;10.45;;;2.58;;
18512;SDS011;9385;48.380;9.744;2022-12-24T12:01:28;11.25;;;3.20;;
18512;SDS011;9385;48.380;9.744;2022-12-24T12:03:59;13.07;;;2.70;;
18512;SDS011;9385;48.380;9.744;2022-12-24T12:06:30;11.02;;;2.50;;
18512;SDS011;9385;48.380;9.744;2022-12-24T12:09:04;12.15;;;3.17;;
18512;SDS011;9385;48.380;9.744;2022-12-24T12:11:37;16.50;;;3.40;;
18512;SDS011;9385;48.380;9.744;2022-12-24T12:14:05;13.25;;;3.22;;
18512;SDS011;9385;48.380;9.744;2022-12-24T12:16:42;38.23;;;13.80;;
18512;SDS011;9385;48.380;9.744;2022-12-24T12:19:28;31.75;;;11.32;;
18512;SDS011;9385;48.380;9.744;2022-12-24T12:22:01;13.13;;;3.60;;
18512;SDS011;9385;48.380;9.744;2022-12-24T12:24:33;7.57;;;2.40;;
18512;SDS011;9385;48.380;9.744;2022-12-24T12:27:06;7.97;;;2.30;;
18512;SDS011;9385;48.380;9.744;2022-12-24T12:29:43;8.25;;;2.40;;
18512;SDS011;9385;48.380;9.744;2022-12-24T12:32:16;8.73;;;2.23;;
18512;SDS011;9385;48.380;9.744;2022-12-24T12:34:54;9.75;;;2.30;;
18512;SDS011;9385;48.380;9.744;2022-12-24T12:37:27;7.85;;;2.20;;
18512;SDS011;9385;48.380;9.744;2022-12-24T12:40:00;7.90;;;1.80;;
18512;SDS011;9385;48.380;9.744;2022-12-24T12:42:29;6.80;;;2.10;;
18512;SDS011;9385;48.380;9.744;2022-12-24T12:45:00;8.23;;;2.10;;
18512;SDS011;9385;48.380;9.744;2022-12-24T12:47:40;7.75;;;2.15;;
18512;SDS011;9385;48.380;9.744;2022-12-24T12:50:18;8.40;;;2.80;;
18512;SDS011;9385;48.380;9.744;2022-12-24T12:52:53;10.75;;;2.72;;
18512;SDS011;9385;48.380;9.744;2022-12-24T12:55:34;6.53;;;2.40;;
18512;SDS011;9385;48.380;9.744;2022-12-24T12:58:12;5.15;;;1.90;;
18512;SDS011;9385;48.380;9.744;2022-12-24T13:00:43;7.95;;;1.95;;
18512;SDS011;9385;48.380;9.744;2022-12-24T13:03:29;8.55;;;2.50;;
18512;SDS011;9385;48.380;9.744;2022-12-24T13:06:25;14.32;;;4.22;;
18512;SDS011;9385;48.380;9.744;2022-12-24T13:09:23;9.18;;;3.25;;
18512;SDS011;9385;48.380;9.744;2022-12-24T13:12:05;9.55;;;3.60;;
18512;SDS011;9385;48.380;9.744;2022-12-24T13:18:11;7.20;;;2.90;;
18512;SDS011;9385;48.380;9.744;2022-12-24T13:20:49;6.95;;;2.00;;
18512;SDS011;9385;48.380;9.744;2022-12-24T13:23:18;8.07;;;2.10;;
18512;SDS011;9385;48.380;9.744;2022-12-24T13:25:48;6.40;;;2.25;;
18512;SDS011;9385;48.380;9.744;2022-12-24T13:28:24;9.88;;;2.30;;
18512;SDS011;9385;48.380;9.744;2022-12-24T13:33:57;5.72;;;2.30;;
18512;SDS011;9385;48.380;9.744;2022-12-24T13:45:37;9.52;;;4.10;;
18512;SDS011;9385;48.380;9.744;2022-12-24T13:48:12;7.88;;;3.50;;
18512;SDS011;9385;48.380;9.744;2022-12-24T13:50:49;5.93;;;2.80;;
18512;SDS011;9385;48.380;9.744;2022-12-24T13:53:20;7.45;;;3.63;;
18512;SDS011;9385;48.380;9.744;2022-12-24T13:55:50;8.38;;;3.20;;
18512;SDS011;9385;48.380;9.744;2022-12-24T13:58:18;7.95;;;2.80;;
18512;SDS011;9385;48.380;9.744;2022-12-24T14:00:52;8.07;;;2.43;;
18512;SDS011;9385;48.380;9.744;2022-12-24T14:03:22;43.27;;;18.17;;
18512;SDS011;9385;48.380;9.744;2022-12-24T14:05:55;53.27;;;22.20;;
18512;SDS011;9385;48.380;9.744;2022-12-24T14:08:25;49.63;;;20.70;;
18512;SDS011;9385;48.380;9.744;2022-12-24T14:11:01;33.50;;;14.18;;
18512;SDS011;9385;48.380;9.744;2022-12-24T14:19:27;10.57;;;4.85;;
18512;SDS011;9385;48.380;9.744;2022-12-24T14:22:00;8.15;;;2.70;;
18512;SDS011;9385;48.380;9.744;2022-12-24T14:24:30;5.95;;;2.38;;
18512;SDS011;9385;48.380;9.744;2022-12-24T14:27:05;5.65;;;2.80;;
18512;SDS011;9385;48.380;9.744;2022-12-24T14:29:39;6.35;;;2.13;;
18512;SDS011;9385;48.380;9.744;2022-12-24T14:32:12;5.28;;;1.70;;
18512;SDS011;9385;48.380;9.744;2022-12-24T14:34:42;6.28;;;1.70;;
18512;SDS011;9385;48.380;9.744;2022-12-24T14:37:10;5.53;;;1.90;;
18512;SDS011;9385;48.380;9.744;2022-12-24T14:39:40;3.90;;;1.50;;
18512;SDS011;9385;48.380;9.744;2022-12-24T14:42:16;3.47;;;1.48;;
18512;SDS011;9385;48.380;9.744;2022-12-24T14:44:55;5.55;;;1.80;;
18512;SDS011;9385;48.380;9.744;2022-12-24T14:47:31;5.82;;;1.80;;
18512;SDS011;9385;48.380;9.744;2022-12-24T14:53:01;7.75;;;1.90;;
18512;SDS011;9385;48.380;9.744;2022-12-24T14:55:42;6.97;;;1.70;;
18512;SDS011;9385;48.380;9.744;2022-12-24T14:58:18;5.90;;;2.33;;
18512;SDS011;9385;48.380;9.744;2022-12-24T15:00:54;5.95;;;1.90;;
18512;SDS011;9385;48.380;9.744;2022-12-24T15:03:23;19.20;;;2.78;;
18512;SDS011;9385;48.380;9.744;2022-12-24T15:05:51;6.57;;;2.13;;
18512;SDS011;9385;48.380;9.744;2022-12-24T15:08:25;6.67;;;2.13;;
18512;SDS011;9385;48.380;9.744;2022-12-24T15:10:55;6.15;;;2.22;;
18512;SDS011;9385;48.380;9.744;2022-12-24T15:13:26;7.45;;;2.45;;
18512;SDS011;9385;48.380;9.744;2022-12-24T15:15:57;8.00;;;2.55;;
18512;SDS011;9385;48.380;9.744;2022-12-24T15:18:25;7.28;;;2.50;;
18512;SDS011;9385;48.380;9.744;2022-12-24T15:20:56;8.43;;;2.80;;
18512;SDS011;9385;48.380;9.744;2022-12-24T15:23:29;6.18;;;2.20;;
18512;SDS011;9385;48.380;9.744;2022-12-24T15:26:07;8.63;;;3.05;;
18512;SDS011;9385;48.380;9.744;2022-12-24T15:28:39;9.90;;;3.00;;
18512;SDS011;9385;48.380;9.744;2022-12-24T15:31:07;7.00;;;3.00;;
18512;SDS011;9385;48.380;9.744;2022-12-24T15:33:37;6.93;;;2.63;;
18512;SDS011;9385;48.380;9.744;2022-12-24T15:36:05;10.77;;;3.53;;
18512;SDS011;9385;48.380;9.744;2022-12-24T15:38:35;10.98;;;4.43;;
18512;SDS011;9385;48.380;9.744;2022-12-24T15:41:05;9.23;;;3.45;;
18512;SDS011;9385;48.380;9.744;2022-12-24T15:43:42;8.65;;;3.05;;
18512;SDS011;9385;48.380;9.744;2022-12-24T15:46:16;10.60;;;2.95;;
18512;SDS011;9385;48.380;9.744;2022-12-24T15:48:44;6.50;;;2.70;;